createdAt,value
2022-12-11T00:00:29.760Z,96855.25
2022-12-11T00:02:57.083Z,96852.19
2022-12-11T00:05:24.325Z,96836.53
2022-12-11T00:07:51.295Z,96843.03
2022-12-11T00:10:18.321Z,96845.50
2022-12-11T00:12:45.176Z,96837.66
2022-12-11T00:15:12.515Z,96829.34
2022-12-11T00:20:34.518Z,96829.84
2022-12-11T00:23:01.732Z,96827.34
2022-12-11T00:25:28.871Z,96830.63
2022-12-11T00:27:56.106Z,96835.38
2022-12-11T00:30:23.088Z,96819.56
2022-12-11T00:32:52.270Z,96821.25
2022-12-11T00:35:19.371Z,96829.84
2022-12-11T00:37:46.263Z,96824.31
2022-12-11T00:40:13.240Z,96825.09
2022-12-11T00:42:40.092Z,96838.44
2022-12-11T00:45:07.809Z,96826.00
2022-12-11T00:47:34.886Z,96844.16
2022-12-11T00:50:01.739Z,96836.91
2022-12-11T00:52:28.635Z,96843.19
2022-12-11T00:54:55.660Z,96846.91
2022-12-11T00:57:22.708Z,96846.63
2022-12-11T00:59:50.104Z,96841.44
2022-12-11T01:02:17.004Z,96852.38
2022-12-11T01:04:44.637Z,96850.28
2022-12-11T01:07:11.558Z,96851.50
2022-12-11T01:09:56.901Z,96850.94
2022-12-11T01:12:23.963Z,96857.22
2022-12-11T01:14:51.269Z,96856.47
2022-12-11T01:17:18.149Z,96866.09
2022-12-11T01:19:45.218Z,96864.25
2022-12-11T01:22:12.108Z,96865.38
2022-12-11T01:24:38.914Z,96863.84
2022-12-11T01:27:05.722Z,96868.44
2022-12-11T01:29:34.306Z,96870.91
2022-12-11T01:32:01.131Z,96868.44
2022-12-11T01:34:31.557Z,96870.91
2022-12-11T01:36:58.423Z,96872.44
2022-12-11T01:39:25.428Z,96873.38
2022-12-11T01:41:58.486Z,96869.38
2022-12-11T01:44:25.248Z,96861.84
2022-12-11T01:46:53.337Z,96858.31
2022-12-11T01:49:23.520Z,96860.81
2022-12-11T01:52:01.943Z,96863.25
2022-12-11T01:54:30.388Z,96862.69
2022-12-11T01:57:04.712Z,96862.69
2022-12-11T01:59:35.622Z,96854.56
2022-12-11T02:02:18.175Z,96857.31
2022-12-11T02:04:46.476Z,96857.78
2022-12-11T02:07:13.503Z,96851.81
2022-12-11T02:09:42.985Z,96842.75
2022-12-11T02:12:26.421Z,96847.97
2022-12-11T02:15:21.300Z,96833.28
2022-12-11T02:17:53.176Z,96838.22
2022-12-11T02:20:54.550Z,96837.56
2022-12-11T02:23:27.815Z,96840.34
2022-12-11T02:26:13.072Z,96849.66
2022-12-11T02:28:52.263Z,96840.91
2022-12-11T02:31:27.932Z,96838.44
2022-12-11T02:34:13.214Z,96847.69
2022-12-11T02:36:45.247Z,96840.47
2022-12-11T02:39:15.803Z,96846.78
2022-12-11T02:41:46.863Z,96846.00
2022-12-11T02:44:17.281Z,96846.78
2022-12-11T02:46:44.788Z,96842.19
2022-12-11T02:49:13.898Z,96844.50
2022-12-11T02:51:42.735Z,96841.72
2022-12-11T02:54:16.213Z,96860.13
2022-12-11T02:56:51.051Z,96852.31
2022-12-11T02:59:29.180Z,96852.31
2022-12-11T03:01:56.264Z,96849.25
2022-12-11T03:04:25.195Z,96854.00
2022-12-11T03:06:56.605Z,96854.28
2022-12-11T03:09:23.786Z,96843.09
2022-12-11T03:11:50.592Z,96846.91
2022-12-11T03:14:17.571Z,96848.91
2022-12-11T03:17:14.551Z,96843.56
2022-12-11T03:19:55.906Z,96844.97
2022-12-11T03:22:34.097Z,96837.13
2022-12-11T03:25:32.616Z,96845.72
2022-12-11T03:28:22.342Z,96840.47
2022-12-11T03:30:51.588Z,96849.53
2022-12-11T03:33:27.401Z,96835.53
2022-12-11T03:35:59.511Z,96826.22
2022-12-11T03:38:39.183Z,96842.59
2022-12-11T03:41:08.199Z,96837.25
2022-12-11T03:43:36.010Z,96839.72
2022-12-11T03:46:03.474Z,96842.97
2022-12-11T03:48:33.857Z,96826.84
2022-12-11T03:51:04.550Z,96835.59
2022-12-11T03:53:33.732Z,96835.50
2022-12-11T03:56:02.101Z,96834.13
2022-12-11T03:58:29.217Z,96831.81
2022-12-11T04:00:56.359Z,96825.72
2022-12-11T04:03:23.263Z,96837.34
2022-12-11T04:05:52.969Z,96832.59
2022-12-11T04:08:21.659Z,96830.28
2022-12-11T04:11:10.196Z,96826.47
2022-12-11T04:13:37.614Z,96825.44
2022-12-11T04:16:04.596Z,96829.69
2022-12-11T04:18:49.791Z,96836.75
2022-12-11T04:21:39.489Z,96829.09
2022-12-11T04:24:16.691Z,96823.56
2022-12-11T04:26:45.709Z,96823.56
2022-12-11T04:29:13.289Z,96833.72
2022-12-11T04:31:40.312Z,96826.94
2022-12-11T04:34:07.260Z,96828.78
2022-12-11T04:36:34.603Z,96835.03
2022-12-11T04:39:01.414Z,96833.53
2022-12-11T04:41:29.087Z,96819.41
2022-12-11T04:43:55.883Z,96823.53
2022-12-11T04:46:24.390Z,96827.84
2022-12-11T04:48:57.099Z,96823.84
2022-12-11T04:51:25.031Z,96815.25
2022-12-11T04:53:52.031Z,96818.31
2022-12-11T04:56:18.997Z,96807.41
2022-12-11T04:58:46.803Z,96803.44
2022-12-11T05:01:16.614Z,96821.09
2022-12-11T05:03:43.676Z,96816.78
2022-12-11T05:06:11.557Z,96816.78
2022-12-11T05:08:40.630Z,96817.56
2022-12-11T05:11:09.986Z,96819.38
2022-12-11T05:13:37.638Z,96826.88
2022-12-11T05:16:06.206Z,96812.78
2022-12-11T05:18:33.261Z,96812.50
2022-12-11T05:21:06.182Z,96815.25
2022-12-11T05:23:33.326Z,96802.66
2022-12-11T05:26:03.522Z,96807.28
2022-12-11T05:28:36.147Z,96813.38
2022-12-11T05:31:08.847Z,96806.78
2022-12-11T05:33:35.835Z,96800.22
2022-12-11T05:36:03.425Z,96801.75
2022-12-11T05:38:30.663Z,96811.53
2022-12-11T05:41:04.865Z,96798.97
2022-12-11T05:43:33.540Z,96799.44
2022-12-11T05:46:14.961Z,96804.97
2022-12-11T05:48:42.726Z,96802.97
2022-12-11T05:51:09.940Z,96804.19
2022-12-11T05:53:38.269Z,96801.16
2022-12-11T05:56:16.406Z,96798.09
2022-12-11T05:58:44.988Z,96802.56
2022-12-11T06:01:28.264Z,96804.56
2022-12-11T06:03:56.080Z,96801.47
2022-12-11T06:06:23.945Z,96791.06
2022-12-11T06:08:51.705Z,96790.28
2022-12-11T06:11:23.784Z,96796.78
2022-12-11T06:13:52.386Z,96790.59
2022-12-11T06:16:20.156Z,96787.09
2022-12-11T06:18:48.038Z,96775.75
2022-12-11T06:21:19.028Z,96770.81
2022-12-11T06:23:47.485Z,96784.91
2022-12-11T06:26:15.191Z,96784.31
2022-12-11T06:28:42.113Z,96773.28
2022-12-11T06:31:09.005Z,96782.00
2022-12-11T06:33:36.333Z,96770.88
2022-12-11T06:36:16.279Z,96775.63
2022-12-11T06:38:43.820Z,96774.41
2022-12-11T06:41:11.414Z,96778.38
2022-12-11T06:43:40.327Z,96778.38
2022-12-11T06:46:10.069Z,96782.19
2022-12-11T06:48:37.065Z,96778.19
2022-12-11T06:51:12.689Z,96770.50
2022-12-11T06:53:40.235Z,96774.03
2022-12-11T06:56:10.269Z,96774.97
2022-12-11T06:58:37.868Z,96777.44
2022-12-11T07:01:13.620Z,96785.25
2022-12-11T07:03:41.529Z,96777.25
2022-12-11T07:06:08.879Z,96793.50
2022-12-11T07:08:36.157Z,96778.75
2022-12-11T07:11:05.693Z,96777.81
2022-12-11T07:13:33.008Z,96775.63
2022-12-11T07:16:02.066Z,96783.19
2022-12-11T07:18:29.204Z,96784.22
2022-12-11T07:20:59.158Z,96782.50
2022-12-11T07:23:28.663Z,96783.28
2022-12-11T07:25:56.413Z,96790.91
2022-12-11T07:28:23.432Z,96788.47
2022-12-11T07:30:50.385Z,96784.75
2022-12-11T07:33:17.395Z,96793.81
2022-12-11T07:35:44.423Z,96786.56
2022-12-11T07:38:11.805Z,96792.09
2022-12-11T07:40:38.616Z,96788.75
2022-12-11T07:43:05.473Z,96789.97
2022-12-11T07:45:32.530Z,96791.22
2022-12-11T07:47:59.737Z,96801.03
2022-12-11T07:50:26.551Z,96799.53
2022-12-11T07:52:53.559Z,96814.84
2022-12-11T07:55:20.399Z,96813.97
2022-12-11T07:57:47.333Z,96805.38
2022-12-11T08:00:14.911Z,96811.25
2022-12-11T08:02:42.145Z,96807.56
2022-12-11T08:05:09.355Z,96806.97
2022-12-11T08:07:36.447Z,96802.38
2022-12-11T08:10:04.901Z,96814.38
2022-12-11T08:12:31.747Z,96814.66
2022-12-11T08:14:58.575Z,96810.66
2022-12-11T08:17:29.557Z,96819.81
2022-12-11T08:19:57.937Z,96807.28
2022-12-11T08:22:24.800Z,96811.84
2022-12-11T08:24:51.832Z,96816.44
2022-12-11T08:27:18.777Z,96811.50
2022-12-11T08:29:47.824Z,96804.09
2022-12-11T08:32:16.879Z,96810.53
2022-12-11T08:34:46.038Z,96815.88
2022-12-11T08:37:13.809Z,96809.84
2022-12-11T08:39:40.729Z,96815.38
2022-12-11T08:42:07.796Z,96812.91
2022-12-11T08:44:35.843Z,96813.69
2022-12-11T08:47:03.009Z,96812.91
2022-12-11T08:49:34.353Z,96817.09
2022-12-11T08:52:03.576Z,96819.41
2022-12-11T08:54:30.543Z,96824.16
2022-12-11T08:56:58.431Z,96815.38
2022-12-11T08:59:25.951Z,96805.84
2022-12-11T09:01:55.363Z,96807.41
2022-12-11T09:04:23.822Z,96811.97
2022-12-11T09:06:50.677Z,96827.63
2022-12-11T09:09:20.625Z,96826.38
2022-12-11T09:11:48.105Z,96828.88
2022-12-11T09:14:16.188Z,96839.28
2022-12-11T09:16:43.576Z,96830.69
2022-12-11T09:19:14.433Z,96831.00
2022-12-11T09:21:42.971Z,96828.22
2022-12-11T09:24:11.975Z,96828.81
2022-12-11T09:26:39.519Z,96829.41
2022-12-11T09:29:07.477Z,96819.88
2022-12-11T09:31:36.462Z,96837.81
2022-12-11T09:34:06.766Z,96821.97
2022-12-11T09:36:34.965Z,96833.97
2022-12-11T09:39:04.735Z,96824.81
2022-12-11T09:41:55.129Z,96831.25
2022-12-11T09:44:42.531Z,96827.34
2022-12-11T09:47:36.218Z,96821.41
2022-12-11T09:50:09.081Z,96824.63
2022-12-11T09:52:35.944Z,96825.84
2022-12-11T09:55:19.843Z,96823.38
2022-12-11T09:58:22.402Z,96812.28
2022-12-11T10:01:18.100Z,96819.56
2022-12-11T10:04:09.808Z,96808.03
2022-12-11T10:07:04.112Z,96798.69
2022-12-11T10:09:34.082Z,96801.44
2022-12-11T10:12:15.054Z,96801.75
2022-12-11T10:15:00.837Z,96796.22
2022-12-11T10:17:37.253Z,96802.78
2022-12-11T10:20:19.016Z,96793.56
2022-12-11T10:22:47.046Z,96791.47
2022-12-11T10:25:31.701Z,96790.00
2022-12-11T10:28:00.556Z,96785.44
2022-12-11T10:30:37.754Z,96784.41
2022-12-11T10:33:19.881Z,96787.66
2022-12-11T10:35:56.040Z,96773.63
2022-12-11T10:38:33.779Z,96765.13
2022-12-11T10:41:11.866Z,96770.16
2022-12-11T10:43:47.077Z,96768.59
2022-12-11T10:46:20.662Z,96766.94
2022-12-11T10:48:53.617Z,96774.66
2022-12-11T10:51:24.758Z,96760.81
2022-12-11T10:54:06.879Z,96756.09
2022-12-11T10:56:37.582Z,96760.81
2022-12-11T10:59:05.064Z,96752.94
2022-12-11T11:01:33.250Z,96756.66
2022-12-11T11:04:01.077Z,96758.09
2022-12-11T11:06:28.083Z,96747.13
2022-12-11T11:08:58.232Z,96752.03
2022-12-11T11:11:27.208Z,96747.78
2022-12-11T11:14:23.339Z,96746.84
2022-12-11T11:16:52.889Z,96747.72
2022-12-11T11:19:24.776Z,96747.88
2022-12-11T11:21:55.254Z,96736.41
2022-12-11T11:24:30.044Z,96743.38
2022-12-11T11:27:13.261Z,96730.75
2022-12-11T11:29:42.090Z,96729.50
2022-12-11T11:32:20.325Z,96745.84
2022-12-11T11:34:47.212Z,96727.13
2022-12-11T11:37:34.762Z,96726.31
2022-12-11T11:40:38.688Z,96731.44
2022-12-11T11:43:15.833Z,96721.38
2022-12-11T11:46:01.248Z,96721.00
2022-12-11T11:48:40.547Z,96719.63
2022-12-11T11:51:15.445Z,96722.19
2022-12-11T11:53:47.583Z,96713.44
2022-12-11T11:56:21.634Z,96716.63
2022-12-11T11:58:57.715Z,96719.38
2022-12-11T12:01:25.020Z,96720.91
2022-12-11T12:03:52.876Z,96708.31
2022-12-11T12:06:50.719Z,96712.94
2022-12-11T12:09:26.436Z,96711.00
2022-12-11T12:12:19.413Z,96719.69
2022-12-11T12:14:58.929Z,96715.59
2022-12-11T12:21:23.026Z,96713.19
2022-12-11T12:24:20.782Z,96717.13
2022-12-11T12:27:01.867Z,96711.09
2022-12-11T12:29:48.987Z,96725.50
2022-12-11T12:32:36.852Z,96721.69
2022-12-11T12:35:10.855Z,96717.13
2022-12-11T12:38:09.669Z,96711.59
2022-12-11T12:41:05.652Z,96708.31
2022-12-11T12:43:35.719Z,96701.84
2022-12-11T12:46:15.754Z,96704.41
2022-12-11T12:48:42.790Z,96689.50
2022-12-11T12:51:14.236Z,96694.56
2022-12-11T12:53:47.332Z,96692.47
2022-12-11T12:56:15.727Z,96690.94
2022-12-11T12:58:45.446Z,96704.31
2022-12-11T13:01:13.131Z,96701.25
2022-12-11T13:03:53.996Z,96686.38
2022-12-11T13:06:42.104Z,96691.25
2022-12-11T13:09:12.203Z,96698.03
2022-12-11T13:11:40.361Z,96685.16
2022-12-11T13:14:24.183Z,96687.81
2022-12-11T13:17:04.380Z,96703.09
2022-12-11T13:19:42.105Z,96692.31
2022-12-11T13:22:12.624Z,96701.66
2022-12-11T13:25:19.668Z,96692.88
2022-12-11T13:27:52.635Z,96696.88
2022-12-11T13:30:19.533Z,96692.59
2022-12-11T13:33:03.278Z,96700.44
2022-12-11T13:35:32.188Z,96697.34
2022-12-11T13:38:17.286Z,96699.09
2022-12-11T13:40:47.004Z,96694.53
2022-12-11T13:43:25.125Z,96699.56
2022-12-11T13:45:59.152Z,96708.34
2022-12-11T13:48:30.099Z,96701.50
2022-12-11T13:51:00.352Z,96710.25
2022-12-11T13:53:28.252Z,96700.81
2022-12-11T13:56:09.692Z,96699.00
2022-12-11T13:58:41.396Z,96699.19
2022-12-11T14:01:16.719Z,96709.78
2022-12-11T14:04:05.013Z,96712.25
2022-12-11T14:06:33.628Z,96710.44
2022-12-11T14:09:01.970Z,96712.19
2022-12-11T14:11:34.533Z,96706.44
2022-12-11T14:14:06.767Z,96714.91
2022-12-11T14:16:34.451Z,96712.81
2022-12-11T14:19:16.576Z,96711.19
2022-12-11T14:21:55.821Z,96717.66
2022-12-11T14:24:23.467Z,96728.56
2022-12-11T14:26:52.453Z,96715.19
2022-12-11T14:29:27.248Z,96723.03
2022-12-11T14:31:55.122Z,96726.25
2022-12-11T14:34:28.749Z,96728.44
2022-12-11T14:36:57.190Z,96729.69
2022-12-11T14:39:37.999Z,96728.34
2022-12-11T14:42:14.984Z,96734.81
2022-12-11T14:44:55.919Z,96735.75
2022-12-11T14:47:29.284Z,96737.47
2022-12-11T14:50:08.734Z,96742.09
2022-12-11T14:52:43.215Z,96748.59
2022-12-11T14:55:14.620Z,96740.19
2022-12-11T14:57:46.625Z,96739.59
2022-12-11T15:00:48.099Z,96747.69
2022-12-11T15:03:24.675Z,96741.91
2022-12-11T15:05:56.635Z,96743.31
2022-12-11T15:08:35.384Z,96740.72
2022-12-11T15:11:12.772Z,96745.50
2022-12-11T15:13:59.023Z,96743.38
2022-12-11T15:16:32.025Z,96747.72
2022-12-11T15:18:59.879Z,96867.41
2022-12-11T15:21:36.099Z,96751.72
2022-12-11T15:24:05.847Z,96763.22
2022-12-11T15:26:40.563Z,96756.63
2022-12-11T15:29:26.812Z,96747.28
2022-12-11T15:32:08.205Z,96751.41
2022-12-11T15:34:42.156Z,96751.84
2022-12-11T15:37:23.060Z,96753.22
2022-12-11T15:39:51.200Z,96748.47
2022-12-11T15:42:42.117Z,96757.66
2022-12-11T15:45:18.953Z,96746.09
2022-12-11T15:47:48.705Z,96750.22
2022-12-11T15:50:25.585Z,96751.13
2022-12-11T15:52:54.179Z,96748.94
2022-12-11T15:55:23.037Z,96744.66
2022-12-11T15:57:56.030Z,96747.84
2022-12-11T16:00:24.143Z,96753.38
2022-12-11T16:02:52.276Z,96751.66
2022-12-11T16:05:20.073Z,96752.44
2022-12-11T16:07:47.842Z,96755.94
2022-12-11T16:10:19.361Z,96742.91
2022-12-11T16:12:51.233Z,96747.31
2022-12-11T16:15:28.230Z,96748.25
2022-12-11T16:18:09.013Z,96763.28
2022-12-11T16:20:37.849Z,96760.91
2022-12-11T16:23:05.765Z,96760.59
2022-12-11T16:25:33.089Z,96765.78
2022-12-11T16:28:02.498Z,96762.72
2022-12-11T16:30:30.148Z,96763.28
2022-12-11T16:32:57.503Z,96763.59
2022-12-11T16:35:24.890Z,96760.84
2022-12-11T16:37:54.961Z,96759.13
2022-12-11T16:40:22.674Z,96768.19
2022-12-11T16:42:50.915Z,96769.13
2022-12-11T16:45:23.760Z,96764.81
2022-12-11T16:47:51.261Z,96764.25
2022-12-11T16:50:20.354Z,96766.50
2022-12-11T16:52:47.565Z,96769.78
2022-12-11T16:55:15.320Z,96763.94
2022-12-11T16:57:42.596Z,96774.88
2022-12-11T17:00:12.862Z,96771.22
2022-12-11T17:02:41.667Z,96772.94
2022-12-11T17:05:08.939Z,96776.34
2022-12-11T17:07:36.879Z,96781.28
2022-12-11T17:10:04.642Z,96778.03
2022-12-11T17:12:32.018Z,96782.78
2022-12-11T17:15:01.608Z,96775.75
2022-12-11T17:17:28.747Z,96778.50
2022-12-11T17:19:56.013Z,96782.50
2022-12-11T17:22:23.311Z,96786.13
2022-12-11T17:24:50.357Z,96789.84
2022-12-11T17:27:18.010Z,96777.75
2022-12-11T17:29:45.032Z,96784.63
2022-12-11T17:32:11.992Z,96785.25
2022-12-11T17:34:38.964Z,96780.06
2022-12-11T17:37:06.478Z,96786.34
2022-12-11T17:39:34.027Z,96782.38
2022-12-11T17:42:03.059Z,96779.16
2022-12-11T17:44:31.339Z,96778.19
2022-12-11T17:46:58.931Z,96776.03
2022-12-11T17:49:26.659Z,96784.63
2022-12-11T17:51:55.567Z,96778.78
2022-12-11T17:54:24.030Z,96779.16
2022-12-11T17:56:51.647Z,96778.38
2022-12-11T17:59:18.743Z,96788.78
2022-12-11T18:01:45.810Z,96778.03
2022-12-11T18:04:13.281Z,96780.59
2022-12-11T18:06:43.751Z,96771.59
2022-12-11T18:09:11.480Z,96769.09
2022-12-11T18:11:38.892Z,96762.81
2022-12-11T18:14:08.420Z,96768.06
2022-12-11T18:16:38.437Z,96774.81
2022-12-11T18:19:06.578Z,96779.38
2022-12-11T18:21:36.234Z,96777.84
2022-12-11T18:24:05.290Z,96783.38
2022-12-11T18:26:32.657Z,96789.66
2022-12-11T18:28:59.548Z,96794.72
2022-12-11T18:31:27.838Z,96798.09
2022-12-11T18:33:55.016Z,96794.09
2022-12-11T18:36:23.530Z,96791.63
2022-12-11T18:38:51.703Z,96790.84
2022-12-11T18:41:21.169Z,96800.22
2022-12-11T18:43:50.291Z,96788.56
2022-12-11T18:46:20.260Z,96784.63
2022-12-11T18:48:50.577Z,96794.91
2022-12-11T18:51:25.519Z,96800.88
2022-12-11T18:53:52.863Z,96799.06
2022-12-11T18:56:21.574Z,96792.19
2022-12-11T18:58:50.943Z,96796.94
2022-12-11T19:01:25.127Z,96810.75
2022-12-11T19:04:02.393Z,96794.81
2022-12-11T19:06:39.651Z,96803.88
2022-12-11T19:09:16.514Z,96810.91
2022-12-11T19:11:43.948Z,96808.94
2022-12-11T19:14:16.764Z,96812.59
2022-12-11T19:16:45.641Z,96807.84
2022-12-11T19:19:16.508Z,96810.16
2022-12-11T19:21:44.573Z,96803.69
2022-12-11T19:24:15.997Z,96802.94
2022-12-11T19:26:44.065Z,96807.41
2022-12-11T19:29:19.912Z,96801.72
2022-12-11T19:31:48.774Z,96801.28
2022-12-11T19:34:16.451Z,96802.03
2022-12-11T19:39:26.457Z,96804.97
2022-12-11T19:41:54.060Z,96802.38
2022-12-11T19:44:23.943Z,96803.44
2022-12-11T19:46:53.063Z,96807.13
2022-12-11T19:49:24.153Z,96810.50
2022-12-11T19:51:52.797Z,96803.44
2022-12-11T19:54:20.593Z,96797.91
2022-12-11T19:56:50.271Z,96804.66
2022-12-11T19:59:20.902Z,96809.88
2022-12-11T20:01:50.866Z,96805.00
2022-12-11T20:04:18.653Z,96804.41
2022-12-11T20:06:49.669Z,96799.19
2022-12-11T20:09:17.146Z,96792.75
2022-12-11T20:11:46.611Z,96806.25
2022-12-11T20:14:24.569Z,96812.88
2022-12-11T20:17:12.757Z,96810.00
2022-12-11T20:19:43.237Z,96816.41
2022-12-11T20:22:10.742Z,96814.59
2022-12-11T20:24:38.001Z,96811.06
2022-12-11T20:27:08.172Z,96812.28
2022-12-11T20:29:35.542Z,96820.28
2022-12-11T20:32:03.020Z,96815.22
2022-12-11T20:34:30.113Z,96808.81
2022-12-11T20:36:57.336Z,96805.72
2022-12-11T20:39:25.275Z,96802.69
2022-12-11T20:41:53.302Z,96814.00
2022-12-11T20:44:22.190Z,96798.22
2022-12-11T20:46:51.498Z,96817.66
2022-12-11T20:49:19.067Z,96805.88
2022-12-11T20:51:46.298Z,96805.09
2022-12-11T20:54:13.416Z,96805.09
2022-12-11T20:56:40.395Z,96806.78
2022-12-11T20:59:11.816Z,96813.22
2022-12-11T21:01:43.400Z,96809.69
2022-12-11T21:04:13.105Z,96802.34
2022-12-11T21:06:40.841Z,96795.81
2022-12-11T21:09:13.603Z,96802.06
2022-12-11T21:11:42.070Z,96801.00
2022-12-11T21:14:13.661Z,96797.19
2022-12-11T21:16:43.831Z,96798.09
2022-12-11T21:19:16.544Z,96790.91
2022-12-11T21:21:45.405Z,96786.00
2022-12-11T21:24:26.724Z,96785.69
2022-12-11T21:26:56.054Z,96791.69
2022-12-11T21:29:25.256Z,96791.53
2022-12-11T21:31:52.544Z,96783.28
2022-12-11T21:34:25.026Z,96780.97
2022-12-11T21:36:56.883Z,96786.19
2022-12-11T21:39:26.427Z,96788.94
2022-12-11T21:41:53.425Z,96787.56
2022-12-11T21:47:09.714Z,96793.84
2022-12-11T21:49:37.952Z,96796.56
2022-12-11T21:52:06.606Z,96802.34
2022-12-11T21:54:34.288Z,96796.47
2022-12-11T21:57:01.661Z,96791.13
2022-12-11T21:59:29.347Z,96795.13
2022-12-11T22:01:56.593Z,96797.41
2022-12-11T22:04:23.954Z,96795.88
2022-12-11T22:06:53.286Z,96801.38
2022-12-11T22:09:21.773Z,96803.34
2022-12-11T22:11:50.619Z,96803.63
2022-12-11T22:14:21.965Z,96808.63
2022-12-11T22:16:48.922Z,96813.22
2022-12-11T22:19:18.649Z,96802.50
2022-12-11T22:21:45.656Z,96797.00
2022-12-11T22:24:12.762Z,96796.38
2022-12-11T22:26:40.374Z,96808.59
2022-12-11T22:29:07.591Z,96806.00
2022-12-11T22:31:35.595Z,96808.75
2022-12-11T22:34:02.968Z,96814.34
2022-12-11T22:36:30.330Z,96803.59
2022-12-11T22:38:57.660Z,96809.50
2022-12-11T22:41:30.238Z,96814.47
2022-12-11T22:44:00.099Z,96812.56
2022-12-11T22:46:32.441Z,96811.28
2022-12-11T22:48:59.976Z,96810.66
2022-12-11T22:51:27.022Z,96813.97
2022-12-11T22:53:53.931Z,96805.66
2022-12-11T22:56:21.221Z,96809.63
2022-12-11T22:58:48.169Z,96809.75
2022-12-11T23:01:21.294Z,96808.88
2022-12-11T23:03:48.845Z,96816.66
2022-12-11T23:06:18.857Z,96812.06
2022-12-11T23:08:47.265Z,96822.41
2022-12-11T23:11:27.601Z,96812.00
2022-12-11T23:13:55.231Z,96817.16
2022-12-11T23:16:23.946Z,96815.63
2022-12-11T23:18:51.945Z,96815.09
2022-12-11T23:21:19.238Z,96814.38
2022-12-11T23:23:47.035Z,96812.88
2022-12-11T23:26:14.828Z,96827.84
2022-12-11T23:28:42.534Z,96828.69
2022-12-11T23:31:09.685Z,96819.25
2022-12-11T23:33:37.197Z,96832.44
2022-12-11T23:36:05.315Z,96838.56
2022-12-11T23:38:32.997Z,96837.16
2022-12-11T23:41:02.852Z,96837.03
